Terminal Aerodrome Forecast
Issued by NWS

Home | Current Version | Previous Version | Text Only | Print | Product List | Glossary On
Versions: 1 2 3 4 5 6 7 8 9 10 11 12
447
FTUS45 KREV 201131
TAFMMH
TAF
KMMH 201131Z 2012/2112 VRB04KT P6SM SKC
     FM201600 11008KT P6SM SKC
     FM202200 22012G20KT P6SM SKC
     FM210300 VRB03KT P6SM SKC=

USA.gov is the U.S. government's official web portal to all federal, state and local government web resources and services.